sensor_id;sensor_type;location;lat;lon;timestamp;P1;durP1;ratioP1;P2;durP2;ratioP2
5710;SDS011;61291;52.524;13.422;2023-12-07T00:02:01;82.73;;;74.50;;
5710;SDS011;61291;52.524;13.422;2023-12-07T00:04:26;82.97;;;74.27;;
5710;SDS011;61291;52.524;13.422;2023-12-07T00:06:52;82.87;;;74.80;;
5710;SDS011;61291;52.524;13.422;2023-12-07T00:09:17;82.43;;;74.30;;
5710;SDS011;61291;52.524;13.422;2023-12-07T00:11:43;82.37;;;74.90;;
5710;SDS011;61291;52.524;13.422;2023-12-07T00:14:08;81.50;;;73.50;;
5710;SDS011;61291;52.524;13.422;2023-12-07T00:16:34;83.03;;;74.53;;
5710;SDS011;61291;52.524;13.422;2023-12-07T00:18:59;83.83;;;76.03;;
5710;SDS011;61291;52.524;13.422;2023-12-07T00:21:24;84.33;;;76.70;;
5710;SDS011;61291;52.524;13.422;2023-12-07T00:23:50;78.77;;;71.30;;
5710;SDS011;61291;52.524;13.422;2023-12-07T00:26:15;84.27;;;75.50;;
5710;SDS011;61291;52.524;13.422;2023-12-07T00:28:41;80.47;;;73.00;;
5710;SDS011;61291;52.524;13.422;2023-12-07T00:31:06;80.90;;;73.23;;
5710;SDS011;61291;52.524;13.422;2023-12-07T00:33:33;83.00;;;75.50;;
5710;SDS011;61291;52.524;13.422;2023-12-07T00:35:58;78.47;;;70.43;;
5710;SDS011;61291;52.524;13.422;2023-12-07T00:38:24;78.17;;;71.10;;
5710;SDS011;61291;52.524;13.422;2023-12-07T00:40:49;78.03;;;70.60;;
5710;SDS011;61291;52.524;13.422;2023-12-07T00:43:15;77.87;;;70.57;;
5710;SDS011;61291;52.524;13.422;2023-12-07T00:45:42;80.97;;;73.83;;
5710;SDS011;61291;52.524;13.422;2023-12-07T00:48:07;80.97;;;73.40;;
5710;SDS011;61291;52.524;13.422;2023-12-07T00:50:33;79.10;;;71.97;;
5710;SDS011;61291;52.524;13.422;2023-12-07T00:52:58;81.07;;;73.47;;
5710;SDS011;61291;52.524;13.422;2023-12-07T00:55:24;82.40;;;74.80;;
5710;SDS011;61291;52.524;13.422;2023-12-07T00:57:49;83.77;;;76.17;;
5710;SDS011;61291;52.524;13.422;2023-12-07T01:00:15;81.00;;;73.27;;
5710;SDS011;61291;52.524;13.422;2023-12-07T01:02:40;81.93;;;74.40;;
5710;SDS011;61291;52.524;13.422;2023-12-07T01:05:06;84.70;;;76.77;;
5710;SDS011;61291;52.524;13.422;2023-12-07T01:07:31;87.23;;;79.20;;
5710;SDS011;61291;52.524;13.422;2023-12-07T01:09:57;80.47;;;73.37;;
5710;SDS011;61291;52.524;13.422;2023-12-07T01:12:22;85.60;;;77.17;;
5710;SDS011;61291;52.524;13.422;2023-12-07T01:14:48;85.10;;;77.23;;
5710;SDS011;61291;52.524;13.422;2023-12-07T01:17:13;81.87;;;74.03;;
5710;SDS011;61291;52.524;13.422;2023-12-07T01:19:39;83.13;;;75.37;;
5710;SDS011;61291;52.524;13.422;2023-12-07T01:22:04;85.03;;;77.27;;
5710;SDS011;61291;52.524;13.422;2023-12-07T01:24:30;80.67;;;73.30;;
5710;SDS011;61291;52.524;13.422;2023-12-07T01:26:55;85.20;;;77.67;;
5710;SDS011;61291;52.524;13.422;2023-12-07T01:29:21;80.83;;;72.97;;
5710;SDS011;61291;52.524;13.422;2023-12-07T01:31:46;82.70;;;74.57;;
5710;SDS011;61291;52.524;13.422;2023-12-07T01:34:12;80.60;;;72.83;;
5710;SDS011;61291;52.524;13.422;2023-12-07T01:36:37;77.10;;;69.87;;
5710;SDS011;61291;52.524;13.422;2023-12-07T01:39:03;76.37;;;69.40;;
5710;SDS011;61291;52.524;13.422;2023-12-07T01:41:29;83.37;;;75.50;;
5710;SDS011;61291;52.524;13.422;2023-12-07T01:43:55;77.60;;;70.10;;
5710;SDS011;61291;52.524;13.422;2023-12-07T01:46:20;80.23;;;72.73;;
5710;SDS011;61291;52.524;13.422;2023-12-07T01:48:46;82.53;;;74.80;;
5710;SDS011;61291;52.524;13.422;2023-12-07T01:51:15;83.37;;;75.37;;
5710;SDS011;61291;52.524;13.422;2023-12-07T01:53:42;81.17;;;73.50;;
5710;SDS011;61291;52.524;13.422;2023-12-07T01:56:08;77.77;;;70.57;;
5710;SDS011;61291;52.524;13.422;2023-12-07T01:58:35;81.93;;;74.60;;
5710;SDS011;61291;52.524;13.422;2023-12-07T02:01:01;85.23;;;77.50;;
5710;SDS011;61291;52.524;13.422;2023-12-07T02:03:27;80.53;;;73.07;;
5710;SDS011;61291;52.524;13.422;2023-12-07T02:05:54;84.07;;;75.13;;
5710;SDS011;61291;52.524;13.422;2023-12-07T02:08:20;83.10;;;75.37;;
5710;SDS011;61291;52.524;13.422;2023-12-07T02:10:46;82.60;;;74.97;;
5710;SDS011;61291;52.524;13.422;2023-12-07T02:13:11;83.22;;;76.18;;
5710;SDS011;61291;52.524;13.422;2023-12-07T02:15:37;82.30;;;74.47;;
5710;SDS011;61291;52.524;13.422;2023-12-07T02:23:51;84.23;;;76.80;;
5710;SDS011;61291;52.524;13.422;2023-12-07T02:26:18;81.97;;;74.22;;
5710;SDS011;61291;52.524;13.422;2023-12-07T02:28:45;89.47;;;80.97;;
5710;SDS011;61291;52.524;13.422;2023-12-07T02:31:11;86.27;;;77.60;;
5710;SDS011;61291;52.524;13.422;2023-12-07T02:33:37;84.00;;;75.77;;
5710;SDS011;61291;52.524;13.422;2023-12-07T02:36:02;84.37;;;76.60;;
5710;SDS011;61291;52.524;13.422;2023-12-07T02:38:28;84.97;;;76.90;;
5710;SDS011;61291;52.524;13.422;2023-12-07T02:40:56;86.20;;;77.90;;
5710;SDS011;61291;52.524;13.422;2023-12-07T02:43:23;84.13;;;76.27;;
5710;SDS011;61291;52.524;13.422;2023-12-07T02:45:49;83.80;;;75.60;;
5710;SDS011;61291;52.524;13.422;2023-12-07T02:48:14;86.50;;;78.40;;
5710;SDS011;61291;52.524;13.422;2023-12-07T02:50:42;87.10;;;78.73;;
5710;SDS011;61291;52.524;13.422;2023-12-07T02:53:07;88.90;;;80.50;;
5710;SDS011;61291;52.524;13.422;2023-12-07T02:55:33;84.37;;;76.03;;
5710;SDS011;61291;52.524;13.422;2023-12-07T02:57:59;84.83;;;77.30;;
5710;SDS011;61291;52.524;13.422;2023-12-07T03:00:25;89.47;;;81.37;;
5710;SDS011;61291;52.524;13.422;2023-12-07T03:02:50;90.60;;;82.33;;
5710;SDS011;61291;52.524;13.422;2023-12-07T03:05:16;86.10;;;78.33;;
5710;SDS011;61291;52.524;13.422;2023-12-07T03:07:41;74.15;;;66.80;;
5710;SDS011;61291;52.524;13.422;2023-12-07T03:10:07;93.20;;;83.73;;
5710;SDS011;61291;52.524;13.422;2023-12-07T03:12:32;86.90;;;78.53;;
5710;SDS011;61291;52.524;13.422;2023-12-07T03:14:58;86.57;;;78.80;;
5710;SDS011;61291;52.524;13.422;2023-12-07T03:17:23;94.97;;;85.90;;
5710;SDS011;61291;52.524;13.422;2023-12-07T03:19:49;86.73;;;78.53;;
5710;SDS011;61291;52.524;13.422;2023-12-07T03:22:15;85.73;;;77.87;;
5710;SDS011;61291;52.524;13.422;2023-12-07T03:24:43;88.23;;;79.47;;
5710;SDS011;61291;52.524;13.422;2023-12-07T03:27:10;84.57;;;76.80;;
5710;SDS011;61291;52.524;13.422;2023-12-07T03:29:36;90.27;;;82.13;;
5710;SDS011;61291;52.524;13.422;2023-12-07T03:32:01;87.50;;;79.07;;
5710;SDS011;61291;52.524;13.422;2023-12-07T03:34:27;88.73;;;80.70;;
5710;SDS011;61291;52.524;13.422;2023-12-07T03:36:53;86.60;;;78.47;;
5710;SDS011;61291;52.524;13.422;2023-12-07T03:39:18;92.40;;;83.83;;
5710;SDS011;61291;52.524;13.422;2023-12-07T03:41:44;85.67;;;77.30;;
5710;SDS011;61291;52.524;13.422;2023-12-07T03:44:10;84.10;;;76.10;;
5710;SDS011;61291;52.524;13.422;2023-12-07T03:46:35;79.27;;;71.77;;
5710;SDS011;61291;52.524;13.422;2023-12-07T03:49:01;87.87;;;79.67;;
5710;SDS011;61291;52.524;13.422;2023-12-07T03:51:27;82.60;;;75.00;;
5710;SDS011;61291;52.524;13.422;2023-12-07T03:53:53;85.17;;;76.87;;
5710;SDS011;61291;52.524;13.422;2023-12-07T03:56:23;83.93;;;75.30;;
5710;SDS011;61291;52.524;13.422;2023-12-07T03:58:49;83.50;;;75.00;;
5710;SDS011;61291;52.524;13.422;2023-12-07T04:01:15;79.17;;;71.10;;
5710;SDS011;61291;52.524;13.422;2023-12-07T04:03:40;87.63;;;78.90;;
5710;SDS011;61291;52.524;13.422;2023-12-07T04:06:05;85.40;;;76.70;;
5710;SDS011;61291;52.524;13.422;2023-12-07T04:08:31;87.13;;;78.47;;
5710;SDS011;61291;52.524;13.422;2023-12-07T04:10:58;87.90;;;79.80;;
5710;SDS011;61291;52.524;13.422;2023-12-07T04:13:23;84.87;;;76.77;;
5710;SDS011;61291;52.524;13.422;2023-12-07T04:15:49;91.23;;;82.30;;
5710;SDS011;61291;52.524;13.422;2023-12-07T04:18:14;93.70;;;84.70;;
5710;SDS011;61291;52.524;13.422;2023-12-07T04:20:40;88.20;;;79.03;;
5710;SDS011;61291;52.524;13.422;2023-12-07T04:23:05;89.73;;;81.43;;
5710;SDS011;61291;52.524;13.422;2023-12-07T04:25:31;90.37;;;81.27;;
5710;SDS011;61291;52.524;13.422;2023-12-07T04:27:56;86.40;;;77.80;;
5710;SDS011;61291;52.524;13.422;2023-12-07T04:30:22;90.27;;;81.23;;
5710;SDS011;61291;52.524;13.422;2023-12-07T04:32:47;94.30;;;84.67;;
5710;SDS011;61291;52.524;13.422;2023-12-07T04:35:13;94.70;;;85.13;;
5710;SDS011;61291;52.524;13.422;2023-12-07T04:37:39;88.33;;;79.60;;
5710;SDS011;61291;52.524;13.422;2023-12-07T04:40:04;96.03;;;86.27;;
5710;SDS011;61291;52.524;13.422;2023-12-07T04:42:31;84.90;;;75.77;;
5710;SDS011;61291;52.524;13.422;2023-12-07T04:44:56;87.90;;;79.20;;
5710;SDS011;61291;52.524;13.422;2023-12-07T04:47:22;92.00;;;82.23;;
5710;SDS011;61291;52.524;13.422;2023-12-07T04:49:48;86.03;;;77.23;;
5710;SDS011;61291;52.524;13.422;2023-12-07T04:52:14;94.20;;;85.10;;
5710;SDS011;61291;52.524;13.422;2023-12-07T04:54:39;91.87;;;82.07;;
5710;SDS011;61291;52.524;13.422;2023-12-07T04:57:05;95.73;;;81.93;;
5710;SDS011;61291;52.524;13.422;2023-12-07T04:59:30;89.23;;;79.93;;
5710;SDS011;61291;52.524;13.422;2023-12-07T05:01:55;90.60;;;80.83;;
5710;SDS011;61291;52.524;13.422;2023-12-07T05:04:21;92.13;;;82.87;;
5710;SDS011;61291;52.524;13.422;2023-12-07T05:06:46;86.30;;;77.07;;
5710;SDS011;61291;52.524;13.422;2023-12-07T05:09:12;80.43;;;66.90;;
5710;SDS011;61291;52.524;13.422;2023-12-07T05:11:37;88.70;;;79.17;;
5710;SDS011;61291;52.524;13.422;2023-12-07T05:14:04;89.10;;;79.43;;
5710;SDS011;61291;52.524;13.422;2023-12-07T05:16:29;84.73;;;75.50;;
5710;SDS011;61291;52.524;13.422;2023-12-07T05:18:55;90.20;;;81.10;;
5710;SDS011;61291;52.524;13.422;2023-12-07T05:21:20;85.13;;;76.70;;
5710;SDS011;61291;52.524;13.422;2023-12-07T05:23:46;89.80;;;76.47;;
5710;SDS011;61291;52.524;13.422;2023-12-07T05:26:11;84.27;;;75.80;;
5710;SDS011;61291;52.524;13.422;2023-12-07T05:28:38;83.83;;;73.57;;
5710;SDS011;61291;52.524;13.422;2023-12-07T05:31:03;85.50;;;76.83;;
5710;SDS011;61291;52.524;13.422;2023-12-07T05:33:29;85.87;;;77.00;;
5710;SDS011;61291;52.524;13.422;2023-12-07T05:35:54;87.53;;;78.63;;
5710;SDS011;61291;52.524;13.422;2023-12-07T05:38:20;84.20;;;75.13;;
5710;SDS011;61291;52.524;13.422;2023-12-07T05:40:45;87.33;;;78.00;;
5710;SDS011;61291;52.524;13.422;2023-12-07T05:43:11;83.77;;;73.60;;
5710;SDS011;61291;52.524;13.422;2023-12-07T05:45:36;90.20;;;75.27;;
5710;SDS011;61291;52.524;13.422;2023-12-07T05:48:01;83.77;;;74.77;;
5710;SDS011;61291;52.524;13.422;2023-12-07T05:50:27;81.77;;;72.87;;
5710;SDS011;61291;52.524;13.422;2023-12-07T05:52:53;88.50;;;74.37;;
5710;SDS011;61291;52.524;13.422;2023-12-07T05:55:20;92.23;;;75.13;;
5710;SDS011;61291;52.524;13.422;2023-12-07T05:57:45;79.67;;;71.67;;
5710;SDS011;61291;52.524;13.422;2023-12-07T06:00:11;89.97;;;80.43;;
5710;SDS011;61291;52.524;13.422;2023-12-07T06:02:37;89.17;;;79.97;;
5710;SDS011;61291;52.524;13.422;2023-12-07T06:05:03;83.13;;;68.40;;
5710;SDS011;61291;52.524;13.422;2023-12-07T06:07:30;84.00;;;75.27;;
5710;SDS011;61291;52.524;13.422;2023-12-07T06:09:55;87.13;;;77.63;;
5710;SDS011;61291;52.524;13.422;2023-12-07T06:12:21;92.27;;;82.63;;
5710;SDS011;61291;52.524;13.422;2023-12-07T06:14:47;90.80;;;81.70;;
5710;SDS011;61291;52.524;13.422;2023-12-07T06:17:13;88.77;;;79.87;;
5710;SDS011;61291;52.524;13.422;2023-12-07T06:19:38;85.93;;;77.33;;
5710;SDS011;61291;52.524;13.422;2023-12-07T06:22:04;87.97;;;79.47;;
5710;SDS011;61291;52.524;13.422;2023-12-07T06:24:30;86.50;;;77.57;;
5710;SDS011;61291;52.524;13.422;2023-12-07T06:26:57;80.43;;;71.97;;
5710;SDS011;61291;52.524;13.422;2023-12-07T06:29:23;91.30;;;81.37;;
5710;SDS011;61291;52.524;13.422;2023-12-07T06:31:48;87.57;;;79.03;;
5710;SDS011;61291;52.524;13.422;2023-12-07T06:34:14;86.60;;;77.10;;
5710;SDS011;61291;52.524;13.422;2023-12-07T06:36:39;83.80;;;75.33;;
5710;SDS011;61291;52.524;13.422;2023-12-07T06:39:05;80.43;;;72.20;;
5710;SDS011;61291;52.524;13.422;2023-12-07T06:41:30;80.77;;;73.40;;
5710;SDS011;61291;52.524;13.422;2023-12-07T06:43:56;82.60;;;74.00;;
5710;SDS011;61291;52.524;13.422;2023-12-07T06:46:21;83.17;;;74.40;;
5710;SDS011;61291;52.524;13.422;2023-12-07T06:48:47;83.67;;;75.97;;
5710;SDS011;61291;52.524;13.422;2023-12-07T06:51:12;79.03;;;70.63;;
5710;SDS011;61291;52.524;13.422;2023-12-07T06:53:39;86.30;;;73.43;;
5710;SDS011;61291;52.524;13.422;2023-12-07T06:56:06;90.03;;;80.33;;
5710;SDS011;61291;52.524;13.422;2023-12-07T06:58:32;85.23;;;76.20;;
5710;SDS011;61291;52.524;13.422;2023-12-07T07:00:57;77.90;;;69.93;;
5710;SDS011;61291;52.524;13.422;2023-12-07T07:03:22;79.87;;;72.27;;
5710;SDS011;61291;52.524;13.422;2023-12-07T07:05:49;89.47;;;80.93;;
5710;SDS011;61291;52.524;13.422;2023-12-07T07:08:15;84.67;;;76.03;;
5710;SDS011;61291;52.524;13.422;2023-12-07T07:10:44;89.47;;;80.50;;
5710;SDS011;61291;52.524;13.422;2023-12-07T07:13:11;83.70;;;75.10;;
5710;SDS011;61291;52.524;13.422;2023-12-07T07:15:41;83.27;;;74.53;;
5710;SDS011;61291;52.524;13.422;2023-12-07T07:18:08;81.37;;;73.00;;
5710;SDS011;61291;52.524;13.422;2023-12-07T07:20:33;82.60;;;74.10;;
5710;SDS011;61291;52.524;13.422;2023-12-07T07:22:59;87.07;;;78.77;;
5710;SDS011;61291;52.524;13.422;2023-12-07T07:25:25;88.37;;;79.27;;
5710;SDS011;61291;52.524;13.422;2023-12-07T07:27:50;86.17;;;77.17;;
5710;SDS011;61291;52.524;13.422;2023-12-07T07:30:17;97.87;;;88.33;;
5710;SDS011;61291;52.524;13.422;2023-12-07T07:32:42;93.03;;;84.03;;
5710;SDS011;61291;52.524;13.422;2023-12-07T07:35:08;96.17;;;84.53;;
5710;SDS011;61291;52.524;13.422;2023-12-07T07:37:36;91.10;;;82.10;;
5710;SDS011;61291;52.524;13.422;2023-12-07T07:40:02;92.77;;;83.40;;
5710;SDS011;61291;52.524;13.422;2023-12-07T07:42:31;89.93;;;80.77;;
5710;SDS011;61291;52.524;13.422;2023-12-07T07:44:57;85.07;;;76.77;;
5710;SDS011;61291;52.524;13.422;2023-12-07T07:47:23;94.60;;;84.73;;
5710;SDS011;61291;52.524;13.422;2023-12-07T07:49:48;89.73;;;81.27;;
5710;SDS011;61291;52.524;13.422;2023-12-07T07:52:14;98.67;;;88.17;;
5710;SDS011;61291;52.524;13.422;2023-12-07T07:54:39;95.23;;;86.10;;
5710;SDS011;61291;52.524;13.422;2023-12-07T07:57:05;90.43;;;82.03;;
5710;SDS011;61291;52.524;13.422;2023-12-07T07:59:30;93.00;;;84.10;;
5710;SDS011;61291;52.524;13.422;2023-12-07T08:01:56;89.37;;;81.13;;
5710;SDS011;61291;52.524;13.422;2023-12-07T08:04:22;89.80;;;81.57;;
5710;SDS011;61291;52.524;13.422;2023-12-07T08:06:47;81.87;;;73.30;;
5710;SDS011;61291;52.524;13.422;2023-12-07T08:09:13;83.83;;;75.80;;
5710;SDS011;61291;52.524;13.422;2023-12-07T08:11:39;88.43;;;80.17;;
5710;SDS011;61291;52.524;13.422;2023-12-07T08:14:04;91.17;;;82.37;;
5710;SDS011;61291;52.524;13.422;2023-12-07T08:16:30;90.37;;;81.93;;
5710;SDS011;61291;52.524;13.422;2023-12-07T08:18:55;87.63;;;79.13;;
5710;SDS011;61291;52.524;13.422;2023-12-07T08:21:21;82.43;;;73.97;;
5710;SDS011;61291;52.524;13.422;2023-12-07T08:23:47;92.17;;;82.00;;
5710;SDS011;61291;52.524;13.422;2023-12-07T08:26:13;87.20;;;78.30;;
5710;SDS011;61291;52.524;13.422;2023-12-07T08:28:40;95.30;;;86.50;;
5710;SDS011;61291;52.524;13.422;2023-12-07T08:31:06;92.63;;;83.80;;
5710;SDS011;61291;52.524;13.422;2023-12-07T08:33:31;92.33;;;83.13;;
5710;SDS011;61291;52.524;13.422;2023-12-07T08:35:59;93.00;;;84.50;;
5710;SDS011;61291;52.524;13.422;2023-12-07T08:38:27;84.47;;;76.23;;
5710;SDS011;61291;52.524;13.422;2023-12-07T08:40:53;91.50;;;83.37;;
5710;SDS011;61291;52.524;13.422;2023-12-07T08:43:20;89.37;;;80.60;;
5710;SDS011;61291;52.524;13.422;2023-12-07T08:45:47;82.50;;;74.17;;
5710;SDS011;61291;52.524;13.422;2023-12-07T08:48:13;86.40;;;78.60;;
5710;SDS011;61291;52.524;13.422;2023-12-07T08:50:39;87.33;;;78.83;;
5710;SDS011;61291;52.524;13.422;2023-12-07T08:53:04;79.23;;;71.43;;
5710;SDS011;61291;52.524;13.422;2023-12-07T08:55:30;87.20;;;78.70;;
5710;SDS011;61291;52.524;13.422;2023-12-07T08:57:55;80.90;;;73.47;;
5710;SDS011;61291;52.524;13.422;2023-12-07T09:00:21;84.37;;;75.27;;
5710;SDS011;61291;52.524;13.422;2023-12-07T09:02:49;87.60;;;79.30;;
5710;SDS011;61291;52.524;13.422;2023-12-07T09:05:14;82.17;;;74.60;;
5710;SDS011;61291;52.524;13.422;2023-12-07T09:07:40;82.27;;;74.77;;
5710;SDS011;61291;52.524;13.422;2023-12-07T09:10:06;84.20;;;76.37;;
5710;SDS011;61291;52.524;13.422;2023-12-07T09:12:33;87.97;;;80.17;;
5710;SDS011;61291;52.524;13.422;2023-12-07T09:15:00;86.10;;;78.70;;
5710;SDS011;61291;52.524;13.422;2023-12-07T09:17:27;82.60;;;75.50;;
5710;SDS011;61291;52.524;13.422;2023-12-07T09:19:52;85.00;;;77.70;;
5710;SDS011;61291;52.524;13.422;2023-12-07T09:22:19;79.87;;;72.20;;
5710;SDS011;61291;52.524;13.422;2023-12-07T09:24:45;87.17;;;79.73;;
5710;SDS011;61291;52.524;13.422;2023-12-07T09:27:11;85.43;;;77.93;;
5710;SDS011;61291;52.524;13.422;2023-12-07T09:29:38;89.77;;;81.67;;
5710;SDS011;61291;52.524;13.422;2023-12-07T09:32:03;81.60;;;74.60;;
5710;SDS011;61291;52.524;13.422;2023-12-07T09:34:29;86.43;;;77.93;;
5710;SDS011;61291;52.524;13.422;2023-12-07T09:37:07;86.17;;;78.23;;
5710;SDS011;61291;52.524;13.422;2023-12-07T09:39:33;82.33;;;75.10;;
5710;SDS011;61291;52.524;13.422;2023-12-07T09:41:59;80.27;;;73.27;;
5710;SDS011;61291;52.524;13.422;2023-12-07T09:44:25;85.00;;;77.70;;
5710;SDS011;61291;52.524;13.422;2023-12-07T09:46:51;74.43;;;68.13;;
5710;SDS011;61291;52.524;13.422;2023-12-07T09:49:16;80.27;;;73.60;;
5710;SDS011;61291;52.524;13.422;2023-12-07T09:51:42;81.47;;;74.67;;
5710;SDS011;61291;52.524;13.422;2023-12-07T09:54:11;85.80;;;78.20;;
5710;SDS011;61291;52.524;13.422;2023-12-07T09:56:36;86.10;;;78.70;;
5710;SDS011;61291;52.524;13.422;2023-12-07T09:59:02;87.90;;;80.03;;
5710;SDS011;61291;52.524;13.422;2023-12-07T10:01:28;83.57;;;76.90;;
5710;SDS011;61291;52.524;13.422;2023-12-07T10:06:43;83.73;;;76.80;;
5710;SDS011;61291;52.524;13.422;2023-12-07T10:09:10;83.20;;;76.50;;
5710;SDS011;61291;52.524;13.422;2023-12-07T10:11:36;81.63;;;74.43;;
5710;SDS011;61291;52.524;13.422;2023-12-07T10:14:04;86.70;;;79.33;;
5710;SDS011;61291;52.524;13.422;2023-12-07T10:16:33;84.20;;;76.03;;
5710;SDS011;61291;52.524;13.422;2023-12-07T10:19:14;83.77;;;76.30;;
5710;SDS011;61291;52.524;13.422;2023-12-07T10:21:46;90.20;;;82.30;;
5710;SDS011;61291;52.524;13.422;2023-12-07T10:24:12;86.23;;;78.63;;
5710;SDS011;61291;52.524;13.422;2023-12-07T10:26:38;76.40;;;69.80;;
5710;SDS011;61291;52.524;13.422;2023-12-07T10:29:05;82.73;;;75.63;;
5710;SDS011;61291;52.524;13.422;2023-12-07T10:31:31;82.20;;;74.93;;
5710;SDS011;61291;52.524;13.422;2023-12-07T10:33:57;89.87;;;82.00;;
5710;SDS011;61291;52.524;13.422;2023-12-07T10:36:25;87.93;;;80.40;;
5710;SDS011;61291;52.524;13.422;2023-12-07T10:38:51;87.63;;;80.00;;
5710;SDS011;61291;52.524;13.422;2023-12-07T10:41:18;87.37;;;79.20;;
5710;SDS011;61291;52.524;13.422;2023-12-07T10:43:49;84.50;;;76.90;;
5710;SDS011;61291;52.524;13.422;2023-12-07T10:46:23;92.87;;;84.50;;
5710;SDS011;61291;52.524;13.422;2023-12-07T10:48:51;88.87;;;81.10;;
5710;SDS011;61291;52.524;13.422;2023-12-07T10:51:29;91.07;;;82.60;;
5710;SDS011;61291;52.524;13.422;2023-12-07T10:53:58;78.13;;;71.33;;
5710;SDS011;61291;52.524;13.422;2023-12-07T10:56:28;85.87;;;77.93;;
5710;SDS011;61291;52.524;13.422;2023-12-07T10:58:57;89.03;;;80.87;;
5710;SDS011;61291;52.524;13.422;2023-12-07T11:01:24;87.37;;;79.80;;
5710;SDS011;61291;52.524;13.422;2023-12-07T11:03:50;81.80;;;74.90;;
5710;SDS011;61291;52.524;13.422;2023-12-07T11:06:18;83.17;;;76.20;;
5710;SDS011;61291;52.524;13.422;2023-12-07T11:08:50;70.47;;;63.57;;
5710;SDS011;61291;52.524;13.422;2023-12-07T11:14:05;90.27;;;81.97;;
5710;SDS011;61291;52.524;13.422;2023-12-07T11:16:34;89.60;;;81.83;;
5710;SDS011;61291;52.524;13.422;2023-12-07T11:19:01;81.13;;;74.13;;
5710;SDS011;61291;52.524;13.422;2023-12-07T11:21:28;90.63;;;82.10;;
5710;SDS011;61291;52.524;13.422;2023-12-07T11:23:53;85.17;;;77.87;;
5710;SDS011;61291;52.524;13.422;2023-12-07T11:26:20;91.50;;;83.17;;
5710;SDS011;61291;52.524;13.422;2023-12-07T11:28:49;90.17;;;81.57;;
5710;SDS011;61291;52.524;13.422;2023-12-07T11:31:15;84.23;;;76.50;;
5710;SDS011;61291;52.524;13.422;2023-12-07T11:33:41;82.40;;;75.20;;
5710;SDS011;61291;52.524;13.422;2023-12-07T11:36:08;81.50;;;74.90;;
5710;SDS011;61291;52.524;13.422;2023-12-07T11:38:35;82.97;;;75.80;;
5710;SDS011;61291;52.524;13.422;2023-12-07T11:41:02;82.57;;;75.67;;
5710;SDS011;61291;52.524;13.422;2023-12-07T11:46:08;88.80;;;81.90;;
5710;SDS011;61291;52.524;13.422;2023-12-07T11:48:34;86.13;;;79.00;;
5710;SDS011;61291;52.524;13.422;2023-12-07T11:51:03;85.37;;;78.00;;
5710;SDS011;61291;52.524;13.422;2023-12-07T11:53:31;85.40;;;78.43;;
5710;SDS011;61291;52.524;13.422;2023-12-07T11:55:58;82.80;;;76.20;;
5710;SDS011;61291;52.524;13.422;2023-12-07T11:58:25;84.50;;;77.30;;
5710;SDS011;61291;52.524;13.422;2023-12-07T12:00:52;90.20;;;82.40;;
5710;SDS011;61291;52.524;13.422;2023-12-07T12:03:18;89.27;;;81.63;;
5710;SDS011;61291;52.524;13.422;2023-12-07T12:05:45;92.50;;;84.70;;
5710;SDS011;61291;52.524;13.422;2023-12-07T12:08:10;92.60;;;84.67;;
5710;SDS011;61291;52.524;13.422;2023-12-07T12:10:36;91.90;;;84.30;;
5710;SDS011;61291;52.524;13.422;2023-12-07T12:13:03;84.03;;;76.37;;
5710;SDS011;61291;52.524;13.422;2023-12-07T12:15:29;78.87;;;71.77;;
5710;SDS011;61291;52.524;13.422;2023-12-07T12:17:58;84.07;;;76.97;;
5710;SDS011;61291;52.524;13.422;2023-12-07T12:20:24;83.50;;;75.87;;
5710;SDS011;61291;52.524;13.422;2023-12-07T12:22:51;78.03;;;71.07;;
5710;SDS011;61291;52.524;13.422;2023-12-07T12:25:23;92.20;;;83.77;;
5710;SDS011;61291;52.524;13.422;2023-12-07T12:27:57;87.67;;;80.17;;
5710;SDS011;61291;52.524;13.422;2023-12-07T12:30:25;91.30;;;83.10;;
5710;SDS011;61291;52.524;13.422;2023-12-07T12:32:52;95.63;;;86.87;;
5710;SDS011;61291;52.524;13.422;2023-12-07T12:35:18;97.83;;;89.30;;
5710;SDS011;61291;52.524;13.422;2023-12-07T12:37:44;91.97;;;83.60;;
5710;SDS011;61291;52.524;13.422;2023-12-07T12:40:11;94.83;;;86.10;;
5710;SDS011;61291;52.524;13.422;2023-12-07T12:42:40;93.83;;;84.93;;
5710;SDS011;61291;52.524;13.422;2023-12-07T12:45:07;89.17;;;80.60;;
5710;SDS011;61291;52.524;13.422;2023-12-07T12:47:35;91.37;;;82.77;;
5710;SDS011;61291;52.524;13.422;2023-12-07T12:50:01;91.87;;;83.27;;
5710;SDS011;61291;52.524;13.422;2023-12-07T12:52:29;84.43;;;76.22;;
5710;SDS011;61291;52.524;13.422;2023-12-07T12:54:55;90.47;;;81.30;;
5710;SDS011;61291;52.524;13.422;2023-12-07T12:57:22;93.67;;;84.87;;
5710;SDS011;61291;52.524;13.422;2023-12-07T12:59:48;100.40;;;90.40;;
5710;SDS011;61291;52.524;13.422;2023-12-07T13:02:13;93.90;;;85.07;;
5710;SDS011;61291;52.524;13.422;2023-12-07T13:04:39;104.50;;;93.50;;
5710;SDS011;61291;52.524;13.422;2023-12-07T13:07:08;94.63;;;85.73;;
5710;SDS011;61291;52.524;13.422;2023-12-07T13:09:34;91.43;;;82.60;;
5710;SDS011;61291;52.524;13.422;2023-12-07T13:11:59;90.63;;;82.20;;
5710;SDS011;61291;52.524;13.422;2023-12-07T13:14:25;89.70;;;81.13;;
5710;SDS011;61291;52.524;13.422;2023-12-07T13:16:50;86.23;;;78.17;;
5710;SDS011;61291;52.524;13.422;2023-12-07T13:19:17;95.87;;;86.97;;
5710;SDS011;61291;52.524;13.422;2023-12-07T13:21:44;89.67;;;81.40;;
5710;SDS011;61291;52.524;13.422;2023-12-07T13:24:10;93.20;;;84.07;;
5710;SDS011;61291;52.524;13.422;2023-12-07T13:26:37;93.73;;;84.43;;
5710;SDS011;61291;52.524;13.422;2023-12-07T13:29:03;102.13;;;91.97;;
5710;SDS011;61291;52.524;13.422;2023-12-07T13:31:29;100.13;;;90.60;;
5710;SDS011;61291;52.524;13.422;2023-12-07T13:33:54;101.23;;;90.97;;
5710;SDS011;61291;52.524;13.422;2023-12-07T13:36:20;99.37;;;89.53;;
5710;SDS011;61291;52.524;13.422;2023-12-07T13:38:48;94.87;;;85.03;;
5710;SDS011;61291;52.524;13.422;2023-12-07T13:41:14;101.17;;;91.23;;
5710;SDS011;61291;52.524;13.422;2023-12-07T13:43:39;99.73;;;89.30;;
5710;SDS011;61291;52.524;13.422;2023-12-07T13:46:06;98.70;;;87.00;;
5710;SDS011;61291;52.524;13.422;2023-12-07T13:48:32;103.43;;;93.73;;
5710;SDS011;61291;52.524;13.422;2023-12-07T13:50:57;102.67;;;92.10;;
5710;SDS011;61291;52.524;13.422;2023-12-07T13:53:23;106.23;;;95.03;;
5710;SDS011;61291;52.524;13.422;2023-12-07T13:55:48;111.30;;;92.37;;
5710;SDS011;61291;52.524;13.422;2023-12-07T13:58:16;111.50;;;100.03;;
5710;SDS011;61291;52.524;13.422;2023-12-07T14:00:41;108.43;;;97.57;;
5710;SDS011;61291;52.524;13.422;2023-12-07T14:03:10;100.10;;;89.47;;
5710;SDS011;61291;52.524;13.422;2023-12-07T14:05:36;103.03;;;92.70;;
5710;SDS011;61291;52.524;13.422;2023-12-07T14:08:03;107.20;;;96.00;;
5710;SDS011;61291;52.524;13.422;2023-12-07T14:10:28;104.10;;;92.60;;
5710;SDS011;61291;52.524;13.422;2023-12-07T14:12:54;105.10;;;90.93;;
5710;SDS011;61291;52.524;13.422;2023-12-07T14:15:19;104.73;;;93.43;;
5710;SDS011;61291;52.524;13.422;2023-12-07T14:17:45;108.80;;;88.57;;
5710;SDS011;61291;52.524;13.422;2023-12-07T14:20:10;99.87;;;89.23;;
5710;SDS011;61291;52.524;13.422;2023-12-07T14:22:36;101.37;;;88.73;;
5710;SDS011;61291;52.524;13.422;2023-12-07T14:25:03;108.27;;;88.83;;
5710;SDS011;61291;52.524;13.422;2023-12-07T14:27:29;99.23;;;88.43;;
5710;SDS011;61291;52.524;13.422;2023-12-07T14:29:55;95.47;;;83.90;;